Time;durP1;ratioP1;P1;durP2;ratioP2;P2;SDS_P1;SDS_P2;PMS_P1;PMS_P2;Temp;Humidity;BMP_temperature;BMP_pressure;BME280_temperature;BME280_humidity;BME280_pressure;Samples;Min_cycle;Max_cycle;Signal;HPM_P1;HPM_P2
2022/09/23 00:00:41;;;;;;;0.00;0.00;;;;;;;9.61;81.40;100822.63;5073626;28;20178;-75
2022/09/23 00:03:07;;;;;;;0.00;0.00;;;;;;;9.68;81.09;100825.78;5073588;28;20490;-75
2022/09/23 00:05:32;;;;;;;0.00;0.00;;;;;;;9.78;80.24;100825.63;5073490;28;20182;-75
2022/09/23 00:07:58;;;;;;;0.00;0.00;;;;;;;9.83;79.89;100828.25;5073395;28;20178;-75
2022/09/23 00:10:25;;;;;;;0.00;0.00;;;;;;;9.85;79.62;100823.34;5073426;28;20206;-75
2022/09/23 00:12:51;;;;;;;0.00;0.00;;;;;;;9.81;79.13;100823.09;5073571;28;20189;-75
2022/09/23 00:15:17;;;;;;;0.10;0.10;;;;;;;9.83;79.70;100828.25;5073496;28;20174;-75
2022/09/23 00:17:43;;;;;;;0.00;0.00;;;;;;;9.85;78.60;100812.44;5072957;28;20225;-75
2022/09/23 00:20:09;;;;;;;0.00;0.00;;;;;;;9.91;78.26;100816.69;5073263;28;20213;-75
2022/09/23 00:22:35;;;;;;;0.00;0.00;;;;;;;9.90;78.52;100806.88;5073281;28;20178;-75
2022/09/23 00:25:06;;;;;;;0.40;0.33;;;;;;;9.93;78.35;100805.47;5073347;28;20181;-75
2022/09/23 00:27:32;;;;;;;0.00;0.00;;;;;;;10.04;77.83;100802.28;5073209;28;20534;-75
2022/09/23 00:29:58;;;;;;;0.20;0.20;;;;;;;10.08;77.28;100808.75;5073421;28;20175;-75
2022/09/23 00:32:23;;;;;;;0.00;0.00;;;;;;;10.10;77.21;100803.78;5073709;28;20530;-75
2022/09/23 00:34:50;;;;;;;0.00;0.00;;;;;;;10.05;76.60;100805.81;5073389;28;20182;-75
2022/09/23 00:37:15;;;;;;;0.00;0.00;;;;;;;10.00;77.30;100809.44;5072919;28;20170;-75
2022/09/23 00:39:41;;;;;;;0.43;0.33;;;;;;;10.08;77.12;100811.47;5073211;28;20210;-74
2022/09/23 00:42:15;;;;;;;0.00;0.00;;;;;;;10.16;76.44;100799.06;5073174;28;20178;-75
2022/09/23 00:44:54;;;;;;;0.00;0.00;;;;;;;10.12;76.38;100796.13;5073247;28;20163;-75
2022/09/23 00:47:23;;;;;;;0.20;0.20;;;;;;;10.20;76.35;100789.16;5073078;28;20662;-75
2022/09/23 00:49:59;;;;;;;0.00;0.00;;;;;;;10.21;75.79;100793.53;5073063;28;20232;-75
2022/09/23 00:52:24;;;;;;;0.00;0.00;;;;;;;10.26;75.71;100787.19;5071782;28;20560;-75
2022/09/23 00:54:54;;;;;;;0.00;0.00;;;;;;;10.26;75.41;100785.25;5071644;28;20174;-75
2022/09/23 00:57:20;;;;;;;0.10;0.10;;;;;;;10.32;75.41;100791.44;5072302;28;20179;-75
2022/09/23 00:59:47;;;;;;;0.03;0.03;;;;;;;10.34;75.34;100783.75;5071891;28;20185;-75
2022/09/23 01:02:15;;;;;;;0.43;0.30;;;;;;;10.37;74.74;100788.63;5072688;28;20171;-75
2022/09/23 01:04:41;;;;;;;0.00;0.00;;;;;;;10.41;74.30;100784.16;5072750;28;20689;-75
2022/09/23 01:07:06;;;;;;;0.00;0.00;;;;;;;10.30;74.53;100782.75;5072802;28;20206;-75
2022/09/23 01:09:31;;;;;;;0.03;0.03;;;;;;;10.36;74.80;100778.81;5072703;28;20270;-75
2022/09/23 01:12:30;;;;;;;0.10;0.10;;;;;;;10.39;74.74;100772.72;5072706;28;20175;-75
2022/09/23 01:15:08;;;;;;;0.00;0.00;;;;;;;10.37;74.78;100775.78;5072649;28;20181;-75
2022/09/23 01:17:33;;;;;;;0.00;0.00;;;;;;;10.30;74.68;100777.28;5072255;28;20174;-75
2022/09/23 01:20:36;;;;;;;0.00;0.00;;;;;;;10.30;75.08;100775.38;5072752;28;20182;-75
2022/09/23 01:23:15;;;;;;;0.00;0.00;;;;;;;10.23;75.07;100768.66;5072451;28;20181;-75
2022/09/23 01:25:56;;;;;;;0.00;0.00;;;;;;;10.21;75.62;100763.50;5072399;28;20189;-75
2022/09/23 01:28:52;;;;;;;0.83;0.77;;;;;;;10.02;77.49;100758.09;5072811;28;20186;-75
2022/09/23 01:31:36;;;;;;;0.00;0.00;;;;;;;9.76;79.17;100754.16;5072490;28;20183;-75
2022/09/23 01:34:14;;;;;;;0.00;0.00;;;;;;;9.55;80.84;100742.78;5072411;28;20636;-74
2022/09/23 01:36:50;;;;;;;0.20;0.20;;;;;;;9.32;81.64;100746.41;5071718;28;20174;-74
2022/09/23 01:39:54;;;;;;;0.20;0.10;;;;;;;9.07;83.37;100753.03;5072065;28;20681;-74
2022/09/23 01:42:38;;;;;;;0.00;0.00;;;;;;;8.89;84.48;100747.25;5030941;28;20263;-75
2022/09/23 01:45:23;;;;;;;0.00;0.00;;;;;;;8.61;85.59;100742.72;5072175;28;20170;-75
2022/09/23 01:47:58;;;;;;;0.00;0.00;;;;;;;8.39;86.54;100742.41;5071751;28;20524;-75
2022/09/23 01:53:22;;;;;;;0.00;0.00;;;;;;;8.09;88.94;100738.06;5071971;28;20313;-74
2022/09/23 01:55:56;;;;;;;0.00;0.00;;;;;;;7.94;90.89;100739.03;5071719;28;20189;-74
2022/09/23 01:58:47;;;;;;;0.00;0.00;;;;;;;7.87;92.16;100739.38;5071806;28;20678;-74
2022/09/23 02:01:20;;;;;;;0.00;0.00;;;;;;;7.84;92.74;100736.44;5057457;28;20240;-74
2022/09/23 02:03:55;;;;;;;0.63;0.63;;;;;;;7.83;93.04;100735.63;5071642;28;20174;-74
2022/09/23 02:06:28;;;;;;;0.10;0.10;;;;;;;7.81;93.44;100734.25;5071652;28;20231;-74
2022/09/23 02:09:00;;;;;;;0.10;0.10;;;;;;;7.78;93.22;100729.41;5071626;28;20308;-74
2022/09/23 02:11:26;;;;;;;0.00;0.00;;;;;;;7.73;94.07;100722.91;5070214;28;20553;-75
2022/09/23 02:14:00;;;;;;;0.00;0.00;;;;;;;7.75;94.90;100726.16;5071383;28;20527;-74
2022/09/23 02:16:57;;;;;;;0.00;0.00;;;;;;;7.72;94.87;100729.44;5071261;28;20167;-74
2022/09/23 02:19:39;;;;;;;0.00;0.00;;;;;;;7.67;95.50;100718.63;5069335;28;20198;-74
2022/09/23 02:22:14;;;;;;;0.00;0.00;;;;;;;7.62;96.17;100715.13;5071331;28;20178;-74
2022/09/23 02:24:40;;;;;;;1.60;0.57;;;;;;;7.62;96.57;100712.41;5071443;28;20239;-74
2022/09/23 02:27:24;;;;;;;0.00;0.00;;;;;;;7.57;97.47;100717.91;5071361;28;20170;-75
2022/09/23 02:30:17;;;;;;;0.00;0.00;;;;;;;7.60;97.89;100709.16;5071494;28;20171;-74
2022/09/23 02:33:06;;;;;;;0.00;0.00;;;;;;;7.72;97.20;100713.13;5069829;28;20179;-74
2022/09/23 02:35:31;;;;;;;0.00;0.00;;;;;;;7.82;97.00;100706.81;5071142;28;20163;-74
2022/09/23 02:38:23;;;;;;;0.40;0.40;;;;;;;7.95;95.41;100708.00;5070833;28;20258;-75
2022/09/23 02:41:14;;;;;;;0.00;0.00;;;;;;;8.22;93.00;100710.19;5071537;28;20192;-75
2022/09/23 02:43:59;;;;;;;0.00;0.00;;;;;;;8.58;90.01;100705.19;5071211;28;20163;-74
2022/09/23 02:46:25;;;;;;;0.20;0.20;;;;;;;8.80;87.84;100704.63;5070638;28;20579;-74
2022/09/23 02:48:59;;;;;;;0.03;0.03;;;;;;;9.01;85.91;100707.88;5070661;28;20189;-74
2022/09/23 02:51:27;;;;;;;0.00;0.00;;;;;;;9.19;84.71;100707.88;5070911;28;20635;-74
2022/09/23 02:53:55;;;;;;;0.00;0.00;;;;;;;9.31;83.65;100712.88;5071125;28;20525;-75
2022/09/23 02:56:20;;;;;;;0.00;0.00;;;;;;;9.30;83.32;100703.09;5070562;28;20174;-75
2022/09/23 02:58:48;;;;;;;0.20;0.20;;;;;;;9.32;82.75;100703.59;5070729;28;20669;-75
2022/09/23 03:01:20;;;;;;;0.43;0.33;;;;;;;9.46;81.60;100712.63;5070759;28;20181;-75
2022/09/23 03:03:54;;;;;;;0.30;0.30;;;;;;;9.52;81.22;100699.72;5070747;28;20167;-75
2022/09/23 03:06:30;;;;;;;0.00;0.00;;;;;;;9.60;80.34;100700.97;5070596;28;20205;-74
2022/09/23 03:09:07;;;;;;;0.07;0.07;;;;;;;9.65;79.97;100698.16;5070772;28;20179;-74
2022/09/23 03:11:38;;;;;;;0.20;0.13;;;;;;;9.62;80.65;100698.75;5070852;28;20166;-74
2022/09/23 03:14:16;;;;;;;0.07;0.07;;;;;;;9.61;80.03;100703.41;5070420;28;20253;-74
2022/09/23 03:17:11;;;;;;;0.03;0.03;;;;;;;9.64;79.85;100693.81;5069308;28;20580;-75
2022/09/23 03:19:46;;;;;;;0.10;0.10;;;;;;;9.72;78.98;100702.13;4998346;28;20731;-75
2022/09/23 03:22:19;;;;;;;0.00;0.00;;;;;;;9.73;78.92;100694.75;5068699;28;20174;-75
2022/09/23 03:24:47;;;;;;;0.10;0.10;;;;;;;9.78;78.80;100694.66;5070646;28;20237;-75
2022/09/23 03:27:18;;;;;;;0.10;0.10;;;;;;;9.85;77.91;100681.44;5070420;28;20186;-74
2022/09/23 03:29:47;;;;;;;0.87;0.87;;;;;;;9.89;77.50;100682.44;5070766;28;20246;-75
2022/09/23 03:32:16;;;;;;;0.23;0.23;;;;;;;9.91;77.92;100680.22;5070665;28;20175;-74
2022/09/23 03:34:43;;;;;;;0.00;0.00;;;;;;;9.86;77.76;100672.13;5070550;28;20214;-75
2022/09/23 03:37:16;;;;;;;0.20;0.20;;;;;;;9.86;78.16;100679.53;5070372;28;20186;-74
2022/09/23 03:39:48;;;;;;;0.93;0.80;;;;;;;9.88;77.77;100680.84;5070520;28;20206;-75
2022/09/23 03:42:23;;;;;;;0.20;0.20;;;;;;;9.88;77.57;100666.38;5070416;28;20175;-74
2022/09/23 03:44:53;;;;;;;0.60;0.60;;;;;;;9.90;77.02;100673.16;5070527;28;20235;-74
2022/09/23 03:47:19;;;;;;;0.10;0.10;;;;;;;9.87;77.34;100683.88;5069832;28;20179;-74
2022/09/23 03:49:47;;;;;;;0.00;0.00;;;;;;;9.91;77.13;100672.03;5070346;28;20390;-74
2022/09/23 03:52:14;;;;;;;0.40;0.37;;;;;;;9.88;77.72;100666.38;5070325;28;20179;-74
2022/09/23 03:54:39;;;;;;;0.27;0.27;;;;;;;9.82;77.98;100663.72;5070315;28;20210;-75
2022/09/23 03:57:06;;;;;;;0.10;0.10;;;;;;;9.81;77.91;100658.56;5070048;28;20240;-74
2022/09/23 03:59:32;;;;;;;1.00;0.90;;;;;;;9.80;77.96;100655.03;5066100;28;20312;-74
2022/09/23 04:01:58;;;;;;;0.10;0.10;;;;;;;9.80;77.61;100662.41;5070068;28;20174;-74
2022/09/23 04:04:25;;;;;;;0.30;0.30;;;;;;;9.82;77.94;100657.47;5070240;28;20540;-74
2022/09/23 04:06:50;;;;;;;0.07;0.07;;;;;;;9.81;77.87;100658.56;5070103;28;20198;-75
2022/09/23 04:09:15;;;;;;;0.20;0.20;;;;;;;9.80;78.07;100652.31;5070190;28;20376;-75
2022/09/23 04:11:41;;;;;;;0.00;0.00;;;;;;;9.79;77.71;100656.16;5070069;28;20183;-75
2022/09/23 04:14:06;;;;;;;0.10;0.10;;;;;;;9.82;77.31;100649.28;5069831;28;20175;-75
2022/09/23 04:16:32;;;;;;;0.00;0.00;;;;;;;9.75;78.13;100649.69;5069918;28;20262;-74
2022/09/23 04:18:57;;;;;;;0.67;0.37;;;;;;;9.72;78.48;100650.28;5070253;28;20217;-74
2022/09/23 04:21:22;;;;;;;0.60;0.60;;;;;;;9.71;78.51;100647.84;5070375;28;20182;-74
2022/09/23 04:23:47;;;;;;;0.10;0.10;;;;;;;9.75;77.85;100644.22;5069722;28;20209;-74
2022/09/23 04:26:13;;;;;;;0.10;0.10;;;;;;;9.75;78.29;100648.88;5069928;28;20185;-75
2022/09/23 04:28:39;;;;;;;0.00;0.00;;;;;;;9.72;78.25;100641.28;5070312;28;20177;-74
2022/09/23 04:31:07;;;;;;;0.00;0.00;;;;;;;9.71;78.23;100642.41;5069995;28;20183;-75
2022/09/23 04:33:32;;;;;;;0.10;0.10;;;;;;;9.72;78.17;100638.56;5071495;28;20167;-75
2022/09/23 04:35:58;;;;;;;0.20;0.20;;;;;;;9.71;78.28;100639.69;5073278;28;20175;-75
2022/09/23 04:38:23;;;;;;;0.10;0.10;;;;;;;9.72;77.72;100633.09;5073271;28;20602;-75
2022/09/23 04:40:49;;;;;;;0.20;0.20;;;;;;;9.73;78.08;100634.72;5073974;28;20705;-75
2022/09/23 04:43:15;;;;;;;0.00;0.00;;;;;;;9.74;77.51;100634.41;5075681;28;20499;-75
2022/09/23 04:45:44;;;;;;;0.00;0.00;;;;;;;9.68;77.85;100643.78;5079405;28;20177;-75
2022/09/23 04:48:11;;;;;;;0.00;0.00;;;;;;;9.59;78.43;100637.44;5073548;28;20257;-75
2022/09/23 04:50:37;;;;;;;0.00;0.00;;;;;;;9.58;78.69;100624.91;5073574;28;20180;-75
2022/09/23 04:53:03;;;;;;;0.00;0.00;;;;;;;9.62;78.93;100634.09;5073502;28;20167;-76
2022/09/23 04:55:28;;;;;;;0.00;0.00;;;;;;;9.67;78.66;100641.38;5073791;28;20216;-75
2022/09/23 04:57:54;;;;;;;0.00;0.00;;;;;;;9.64;79.03;100639.25;5073617;28;20202;-76
2022/09/23 05:00:20;;;;;;;0.00;0.00;;;;;;;9.65;79.11;100638.94;5073387;28;20210;-74
2022/09/23 05:02:48;;;;;;;0.00;0.00;;;;;;;9.56;79.12;100629.03;5073214;28;21040;-75
2022/09/23 05:05:19;;;;;;;0.00;0.00;;;;;;;9.60;79.68;100635.50;5073228;28;20257;-75
2022/09/23 05:07:46;;;;;;;0.00;0.00;;;;;;;9.57;79.74;100630.66;5068682;28;20183;-75
2022/09/23 05:10:12;;;;;;;0.00;0.00;;;;;;;9.44;80.03;100622.13;5066265;28;20225;-75
2022/09/23 05:12:37;;;;;;;0.00;0.00;;;;;;;9.45;80.47;100623.75;5072997;28;20198;-75
2022/09/23 05:15:02;;;;;;;0.00;0.00;;;;;;;9.39;80.36;100630.38;5072892;28;20248;-75
2022/09/23 05:17:29;;;;;;;0.20;0.20;;;;;;;9.40;80.94;100626.56;5072896;28;20337;-75
2022/09/23 05:19:55;;;;;;;0.00;0.00;;;;;;;9.40;81.06;100617.56;5072759;28;20177;-75
2022/09/23 05:22:20;;;;;;;0.00;0.00;;;;;;;9.49;80.84;100622.03;5072810;28;20200;-75
2022/09/23 05:24:46;;;;;;;0.00;0.00;;;;;;;9.48;80.69;100627.78;5072373;28;20244;-76
2022/09/23 05:27:11;;;;;;;0.00;0.00;;;;;;;9.38;81.21;100625.22;5072342;28;20189;-76
2022/09/23 05:29:38;;;;;;;0.20;0.20;;;;;;;9.38;81.20;100626.03;5072547;28;20472;-76
2022/09/23 05:32:03;;;;;;;0.00;0.00;;;;;;;9.28;82.41;100628.97;5072632;28;20232;-76
2022/09/23 05:34:28;;;;;;;0.00;0.00;;;;;;;9.28;82.45;100631.69;5072600;28;20178;-76
2022/09/23 05:36:54;;;;;;;0.00;0.00;;;;;;;9.29;83.17;100624.31;5072306;28;20182;-76
2022/09/23 05:39:19;;;;;;;0.07;0.07;;;;;;;9.35;82.38;100620.38;5072306;28;20207;-77
2022/09/23 05:41:45;;;;;;;0.37;0.37;;;;;;;9.43;81.77;100623.25;5072467;28;20206;-76
2022/09/23 05:44:10;;;;;;;1.10;1.00;;;;;;;9.58;80.83;100624.09;5072143;28;20182;-77
2022/09/23 05:46:36;;;;;;;0.00;0.00;;;;;;;9.71;79.73;100620.56;5072449;28;20178;-76
2022/09/23 05:49:01;;;;;;;0.37;0.37;;;;;;;9.81;78.86;100626.63;5070777;28;20226;-76
2022/09/23 05:51:27;;;;;;;1.80;0.80;;;;;;;9.88;78.18;100620.78;5071975;28;20206;-76
2022/09/23 05:53:54;;;;;;;0.00;0.00;;;;;;;9.95;78.34;100625.84;5072007;28;20677;-75
2022/09/23 05:56:25;;;;;;;0.60;0.33;;;;;;;9.97;78.32;100629.88;5071656;28;20712;-76
2022/09/23 05:58:53;;;;;;;0.03;0.03;;;;;;;10.05;77.61;100621.00;5071991;28;20334;-76
2022/09/23 06:01:21;;;;;;;0.00;0.00;;;;;;;10.10;77.44;100623.63;5071988;28;20537;-76
2022/09/23 06:03:48;;;;;;;0.10;0.10;;;;;;;10.19;77.27;100628.38;5072254;28;20460;-76
2022/09/23 06:06:26;;;;;;;0.00;0.00;;;;;;;10.24;77.23;100623.63;5071453;28;20489;-77
2022/09/23 06:08:52;;;;;;;0.00;0.00;;;;;;;10.31;77.01;100626.78;5071496;28;20253;-77
2022/09/23 06:11:17;;;;;;;0.23;0.23;;;;;;;10.40;77.04;100624.13;5071926;28;20602;-76
2022/09/23 06:13:43;;;;;;;0.97;0.83;;;;;;;10.44;76.69;100625.16;5071819;28;20198;-77
2022/09/23 06:16:11;;;;;;;0.30;0.30;;;;;;;10.56;75.50;100633.63;5071105;28;20175;-76
2022/09/23 06:18:39;;;;;;;0.40;0.40;;;;;;;10.62;75.79;100634.31;5071662;28;20202;-76
2022/09/23 06:21:04;;;;;;;0.00;0.00;;;;;;;10.66;75.84;100632.59;5071488;28;20524;-75
2022/09/23 06:23:30;;;;;;;0.10;0.10;;;;;;;10.67;76.77;100634.19;5070927;28;20182;-79
2022/09/23 06:26:04;;;;;;;0.00;0.00;;;;;;;10.66;76.36;100632.59;5071151;28;20182;-75
2022/09/23 06:28:37;;;;;;;0.10;0.10;;;;;;;10.66;76.54;100627.94;5071961;28;20220;-75
2022/09/23 06:31:06;;;;;;;0.00;0.00;;;;;;;10.75;76.41;100624.47;5071267;28;20189;-75
2022/09/23 06:33:32;;;;;;;0.00;0.00;;;;;;;10.76;76.32;100626.09;5071477;28;20183;-75
2022/09/23 06:35:59;;;;;;;0.10;0.10;;;;;;;10.83;75.38;100626.47;5071199;28;20578;-75
2022/09/23 06:38:26;;;;;;;0.53;0.53;;;;;;;10.88;75.95;100629.09;5071186;28;20190;-75
2022/09/23 06:40:55;;;;;;;0.00;0.00;;;;;;;10.92;75.57;100621.88;5071041;28;20274;-75
2022/09/23 06:43:22;;;;;;;0.43;0.33;;;;;;;10.96;76.01;100631.09;5071194;28;20171;-75
2022/09/23 06:45:54;;;;;;;0.20;0.20;;;;;;;10.97;75.54;100629.97;5070817;28;20261;-74
2022/09/23 06:48:20;;;;;;;0.00;0.00;;;;;;;11.00;75.72;100626.63;5071064;28;20178;-74
2022/09/23 06:50:48;;;;;;;0.17;0.17;;;;;;;11.01;76.50;100629.06;5070959;28;20197;-75
2022/09/23 06:53:14;;;;;;;0.33;0.33;;;;;;;11.00;76.23;100629.38;5069621;28;20175;-74
2022/09/23 06:55:40;;;;;;;0.00;0.00;;;;;;;10.99;76.43;100617.63;5070162;28;20186;-75
2022/09/23 06:58:06;;;;;;;0.03;0.03;;;;;;;11.00;76.00;100621.16;5070744;28;20563;-76
2022/09/23 07:00:32;;;;;;;0.00;0.00;;;;;;;10.98;76.30;100617.91;5069392;28;20189;-75
2022/09/23 07:02:57;;;;;;;0.07;0.07;;;;;;;10.99;76.00;100623.09;5070928;28;20182;-75
2022/09/23 07:05:23;;;;;;;0.00;0.00;;;;;;;10.99;76.43;100620.34;5070856;28;20167;-74
2022/09/23 07:07:48;;;;;;;0.00;0.00;;;;;;;11.05;76.56;100622.97;5070451;28;20180;-75
2022/09/23 07:10:13;;;;;;;0.00;0.00;;;;;;;11.05;76.85;100615.56;5070622;28;20180;-75
2022/09/23 07:12:39;;;;;;;0.00;0.00;;;;;;;11.12;76.84;100621.41;5069141;28;20208;-74
2022/09/23 07:15:05;;;;;;;0.00;0.00;;;;;;;11.12;76.44;100607.72;5070169;28;20217;-74
2022/09/23 07:17:31;;;;;;;0.00;0.00;;;;;;;11.14;76.07;100610.13;5070026;28;20223;-74
2022/09/23 07:19:57;;;;;;;0.00;0.00;;;;;;;11.11;75.99;100603.38;5070140;28;20214;-75
2022/09/23 07:22:23;;;;;;;0.00;0.00;;;;;;;11.16;76.17;100622.41;5069076;28;20208;-74
2022/09/23 07:24:50;;;;;;;0.00;0.00;;;;;;;11.17;76.23;100610.34;5069766;28;20171;-75
2022/09/23 07:27:18;;;;;;;0.00;0.00;;;;;;;11.20;76.25;100609.72;5069858;28;20175;-74
2022/09/23 07:29:43;;;;;;;0.00;0.00;;;;;;;11.28;75.98;100611.72;5068848;28;20179;-75
2022/09/23 07:32:09;;;;;;;0.00;0.00;;;;;;;11.30;75.68;100609.47;5070294;28;20174;-75
2022/09/23 07:34:35;;;;;;;0.60;0.60;;;;;;;11.38;75.59;100616.09;5070282;28;20197;-75
2022/09/23 07:37:01;;;;;;;0.17;0.03;;;;;;;11.42;75.07;100608.06;5068449;28;20218;-74
2022/09/23 07:39:28;;;;;;;0.00;0.00;;;;;;;11.48;75.57;100613.13;5069646;28;20240;-75
2022/09/23 07:41:53;;;;;;;0.00;0.00;;;;;;;11.55;74.59;100605.25;5067998;28;20549;-75
2022/09/23 07:44:20;;;;;;;2.93;0.80;;;;;;;11.62;74.35;100613.03;5068921;28;20235;-75
2022/09/23 07:46:46;;;;;;;0.00;0.00;;;;;;;11.67;75.26;100604.69;5062640;28;20183;-75
2022/09/23 07:49:12;;;;;;;0.00;0.00;;;;;;;11.71;74.37;100610.31;5069813;28;20273;-75
2022/09/23 07:51:39;;;;;;;0.00;0.00;;;;;;;11.78;74.25;100611.50;5070897;28;20262;-76
2022/09/23 07:54:12;;;;;;;0.00;0.00;;;;;;;11.87;73.35;100614.31;5069459;28;20185;-75
2022/09/23 07:56:38;;;;;;;0.00;0.00;;;;;;;11.94;73.88;100614.66;5066400;28;20264;-76
2022/09/23 07:59:07;;;;;;;0.20;0.20;;;;;;;12.03;73.07;100614.69;5068029;28;20203;-76
2022/09/23 08:01:38;;;;;;;0.10;0.10;;;;;;;12.13;73.77;100612.47;5065215;28;20183;-75
2022/09/23 08:04:11;;;;;;;0.00;0.00;;;;;;;12.21;74.07;100608.16;5065326;28;20178;-75
2022/09/23 08:07:07;;;;;;;0.00;0.00;;;;;;;12.36;74.10;100610.44;5061430;28;20171;-74
2022/09/23 08:09:40;;;;;;;0.00;0.00;;;;;;;12.55;74.22;100612.88;5050276;28;20195;-75
2022/09/23 08:12:07;;;;;;;0.47;0.47;;;;;;;12.63;73.33;100609.34;5073292;28;20197;-75
2022/09/23 08:14:32;;;;;;;0.53;0.53;;;;;;;12.76;71.67;100610.34;5073367;28;20572;-74
2022/09/23 08:16:58;;;;;;;0.00;0.00;;;;;;;12.82;70.21;100606.28;5072967;28;20179;-75
2022/09/23 08:19:23;;;;;;;0.00;0.00;;;;;;;12.98;70.22;100606.63;5073123;28;20203;-74
2022/09/23 08:21:50;;;;;;;0.00;0.00;;;;;;;13.17;69.52;100611.78;5068199;28;20175;-74
2022/09/23 08:24:18;;;;;;;0.00;0.00;;;;;;;13.28;69.04;100602.09;5056861;28;20232;-74
2022/09/23 08:26:45;;;;;;;0.20;0.20;;;;;;;13.32;69.07;100600.34;5071321;28;20621;-75
2022/09/23 08:29:12;;;;;;;0.00;0.00;;;;;;;13.32;68.63;100595.66;5072917;28;20312;-75
2022/09/23 08:31:38;;;;;;;0.10;0.10;;;;;;;13.36;68.77;100593.06;5072400;28;20186;-75
2022/09/23 08:34:03;;;;;;;0.10;0.10;;;;;;;13.41;68.36;100590.13;5073481;28;20227;-78
2022/09/23 08:36:30;;;;;;;0.00;0.00;;;;;;;13.43;67.98;100598.03;5073078;28;20832;-75
2022/09/23 08:38:56;;;;;;;0.60;0.60;;;;;;;13.47;68.51;100599.81;5071403;28;20289;-75
2022/09/23 08:41:39;;;;;;;0.20;0.20;;;;;;;13.44;68.31;100605.94;5072917;28;20706;-75
2022/09/23 08:44:24;;;;;;;0.43;0.43;;;;;;;13.45;68.47;100596.56;5072847;28;20183;-75
2022/09/23 08:47:11;;;;;;;0.63;0.63;;;;;;;13.60;68.76;100609.78;5052553;28;20823;-75
2022/09/23 08:50:11;;;;;;;0.00;0.00;;;;;;;13.74;68.96;100614.25;5052958;28;20187;-75
2022/09/23 08:52:48;;;;;;;0.00;0.00;;;;;;;13.83;67.27;100598.56;5055099;28;20261;-77
2022/09/23 08:55:15;;;;;;;0.00;0.00;;;;;;;13.96;66.74;100594.78;5072317;28;20589;-76
2022/09/23 08:57:46;;;;;;;0.00;0.00;;;;;;;14.12;66.81;100598.56;5070906;28;20201;-76
2022/09/23 09:00:20;;;;;;;0.00;0.00;;;;;;;14.22;65.71;100597.41;5072710;28;20594;-76
2022/09/23 09:02:47;;;;;;;0.20;0.20;;;;;;;14.19;64.76;100596.13;5072644;28;20254;-76
2022/09/23 09:05:19;;;;;;;0.00;0.00;;;;;;;14.28;65.56;100601.56;5072647;28;20764;-76
2022/09/23 09:07:45;;;;;;;0.00;0.00;;;;;;;14.31;65.82;100598.13;5072543;28;20560;-76
2022/09/23 09:10:23;;;;;;;0.00;0.00;;;;;;;14.37;65.44;100602.31;5072429;28;20588;-76
2022/09/23 09:12:59;;;;;;;0.00;0.00;;;;;;;14.39;64.69;100604.75;5072461;28;20228;-76
2022/09/23 09:15:26;;;;;;;0.00;0.00;;;;;;;14.46;65.02;100599.53;5072462;28;20656;-75
2022/09/23 09:18:03;;;;;;;0.00;0.00;;;;;;;14.54;64.94;100598.69;5071836;28;20182;-75
2022/09/23 09:20:35;;;;;;;0.00;0.00;;;;;;;14.60;64.23;100597.34;5070253;28;20202;-76
2022/09/23 09:23:12;;;;;;;12.20;11.33;;;;;;;14.69;64.00;100597.28;5072330;28;20637;-75
2022/09/23 09:25:48;;;;;;;0.00;0.00;;;;;;;14.74;63.15;100597.06;5072070;28;20178;-76
2022/09/23 09:28:29;;;;;;;0.10;0.10;;;;;;;14.92;65.42;100598.56;5070488;28;20578;-75
2022/09/23 09:31:14;;;;;;;0.00;0.00;;;;;;;14.97;63.80;100586.53;5070088;28;20430;-75
2022/09/23 09:33:58;;;;;;;0.00;0.00;;;;;;;15.03;63.32;100585.19;5068540;28;20673;-76
2022/09/23 09:36:34;;;;;;;0.13;0.13;;;;;;;15.16;63.75;100589.59;5071575;28;20179;-75
2022/09/23 09:39:00;;;;;;;0.00;0.00;;;;;;;15.21;61.46;100589.41;5071922;28;20684;-74
2022/09/23 09:41:30;;;;;;;0.00;0.00;;;;;;;15.39;62.71;100590.03;5072173;28;20261;-75
2022/09/23 09:43:58;;;;;;;0.90;0.20;;;;;;;15.41;62.16;100585.78;5071757;28;20228;-75
2022/09/23 09:46:50;;;;;;;0.40;0.40;;;;;;;15.55;61.93;100584.66;5069518;28;20242;-74
2022/09/23 09:49:48;;;;;;;0.00;0.00;;;;;;;15.53;60.23;100575.94;5070048;28;20210;-75
2022/09/23 09:52:25;;;;;;;1.47;0.13;;;;;;;15.63;59.41;100578.28;5071707;28;20171;-75
2022/09/23 09:54:51;;;;;;;0.00;0.00;;;;;;;15.70;59.54;100573.81;5071617;28;20231;-75
2022/09/23 09:57:20;;;;;;;0.00;0.00;;;;;;;15.87;61.02;100577.50;5066685;28;20281;-74
2022/09/23 09:59:45;;;;;;;0.20;0.20;;;;;;;15.87;58.52;100567.28;5071264;28;20211;-74
2022/09/23 10:02:11;;;;;;;0.57;0.57;;;;;;;15.69;57.02;100566.69;5071521;28;20227;-74
2022/09/23 10:04:37;;;;;;;0.33;0.23;;;;;;;15.47;57.79;100561.56;5069933;28;20174;-74
2022/09/23 10:07:15;;;;;;;0.50;0.50;;;;;;;15.60;58.80;100552.22;5071077;28;20178;-74
2022/09/23 10:09:49;;;;;;;0.50;0.50;;;;;;;15.70;58.89;100556.47;5071303;28;20212;-74
2022/09/23 10:12:20;;;;;;;0.20;0.20;;;;;;;15.80;58.63;100560.75;5071015;28;20186;-74
2022/09/23 10:14:50;;;;;;;0.27;0.27;;;;;;;15.88;58.91;100546.84;5071221;28;20630;-72
2022/09/23 10:17:34;;;;;;;0.17;0.17;;;;;;;16.09;59.68;100551.44;5070854;28;20179;-74
2022/09/23 10:20:08;;;;;;;0.00;0.00;;;;;;;16.25;59.23;100557.84;5071057;28;20225;-74
2022/09/23 10:22:38;;;;;;;0.77;0.33;;;;;;;16.38;58.43;100545.66;5071191;28;20179;-75
2022/09/23 10:25:14;;;;;;;0.50;0.50;;;;;;;16.49;57.23;100544.03;5070939;28;20228;-73
2022/09/23 10:27:40;;;;;;;0.97;0.97;;;;;;;16.38;57.45;100542.91;5070826;28;20511;-74
2022/09/23 10:30:22;;;;;;;0.60;0.40;;;;;;;16.27;57.27;100536.25;5071203;28;20253;-74
2022/09/23 10:32:48;;;;;;;0.30;0.30;;;;;;;16.31;58.25;100537.16;5070918;28;20174;-74
2022/09/23 10:35:16;;;;;;;0.10;0.10;;;;;;;16.31;57.12;100534.41;5070779;28;20185;-73
2022/09/23 10:37:53;;;;;;;0.20;0.20;;;;;;;16.46;57.32;100544.69;5069454;28;20185;-74
2022/09/23 10:46:44;;;;;;;1.03;0.67;;;;;;;16.71;55.65;100544.66;5070450;28;20182;-74
2022/09/23 10:49:57;;;;;;;3.20;0.97;;;;;;;16.71;55.70;100531.69;5071084;28;20511;-74
2022/09/23 10:52:56;;;;;;;0.70;0.70;;;;;;;16.95;56.63;100526.06;5056250;28;20209;-74
2022/09/23 10:55:52;;;;;;;0.83;0.83;;;;;;;17.08;55.67;100524.06;5070753;28;20768;-75
2022/09/23 10:58:54;;;;;;;0.97;0.97;;;;;;;17.05;54.75;100523.94;5070392;28;20285;-74
2022/09/23 11:01:42;;;;;;;2.87;0.53;;;;;;;16.85;55.38;100529.31;5068951;28;20236;-73
2022/09/23 11:04:37;;;;;;;0.10;0.10;;;;;;;16.70;55.72;100518.25;5070426;28;20263;-74
2022/09/23 11:07:08;;;;;;;6.03;0.53;;;;;;;16.72;56.97;100510.41;5015728;28;20184;-74
2022/09/23 11:09:42;;;;;;;0.17;0.10;;;;;;;16.79;56.91;100518.91;5070286;28;20205;-74
2022/09/23 11:12:23;;;;;;;2.03;0.77;;;;;;;16.98;56.99;100516.28;5070281;28;20255;-74
2022/09/23 11:14:57;;;;;;;0.10;0.10;;;;;;;17.12;55.05;100502.84;5070503;28;20163;-75
2022/09/23 11:17:37;;;;;;;0.20;0.20;;;;;;;17.16;54.99;100503.75;5070509;28;20257;-74
2022/09/23 11:20:22;;;;;;;0.00;0.00;;;;;;;17.27;55.06;100504.03;5068975;28;20684;-74
2022/09/23 11:23:07;;;;;;;0.80;0.80;;;;;;;17.12;53.74;100505.63;5070174;28;20527;-74
2022/09/23 11:26:09;;;;;;;0.47;0.47;;;;;;;17.11;53.89;100501.25;5069051;28;20190;-73
2022/09/23 11:29:03;;;;;;;0.00;0.00;;;;;;;17.20;55.15;100496.34;5069094;28;20178;-73
2022/09/23 11:31:59;;;;;;;0.03;0.03;;;;;;;17.31;55.81;100496.63;5070423;28;20171;-73
2022/09/23 11:34:43;;;;;;;0.40;0.40;;;;;;;17.40;56.01;100479.91;5063352;28;20191;-73
2022/09/23 11:37:17;;;;;;;0.00;0.00;;;;;;;17.41;55.50;100478.75;5061405;28;20189;-74
2022/09/23 11:40:16;;;;;;;0.00;0.00;;;;;;;17.43;55.39;100482.75;5063851;28;20681;-75
2022/09/23 11:42:56;;;;;;;0.00;0.00;;;;;;;17.57;54.36;100474.00;5072175;28;20195;-74
2022/09/23 11:45:29;;;;;;;0.83;0.67;;;;;;;17.66;53.93;100469.09;5080384;28;20174;-74
2022/09/23 11:47:59;;;;;;;12.73;0.63;;;;;;;17.58;54.61;100469.28;5076062;28;20210;-74
2022/09/23 11:50:32;;;;;;;0.40;0.40;;;;;;;17.66;53.72;100469.09;5074069;28;20278;-73
2022/09/23 11:53:06;;;;;;;0.00;0.00;;;;;;;17.74;53.46;100468.13;5074736;28;20177;-74
2022/09/23 11:55:42;;;;;;;0.00;0.00;;;;;;;17.83;52.69;100452.16;5073526;28;20189;-74
2022/09/23 11:58:14;;;;;;;0.37;0.37;;;;;;;17.97;51.48;100450.88;5074371;28;20286;-73
2022/09/23 12:00:48;;;;;;;0.77;0.77;;;;;;;17.86;52.08;100455.38;5074324;28;20720;-73